Time;durP1;ratioP1;P1;durP2;ratioP2;P2;SDS_P1;SDS_P2;PMS_P1;PMS_P2;Temp;Humidity;BMP_temperature;BMP_pressure;BME280_temperature;BME280_humidity;BME280_pressure;Samples;Min_cycle;Max_cycle;Signal;HPM_P1;HPM_P2
2023/04/28 00:02:53;;;;;;;2.90;1.40;;;20.70;44.40;;;;;;6119749;29;20086;-73
2023/04/28 00:05:54;;;;;;;1.45;0.90;;;20.70;44.50;;;;;;6121148;29;20501;-73
2023/04/28 00:08:54;;;;;;;2.85;1.10;;;20.60;44.50;;;;;;6119401;29;20090;-74
2023/04/28 00:11:55;;;;;;;2.10;1.27;;;20.60;44.60;;;;;;6120758;29;20028;-72
2023/04/28 00:14:56;;;;;;;2.63;1.02;;;20.50;44.70;;;;;;6119888;29;20047;-73
2023/04/28 00:17:57;;;;;;;10.95;1.35;;;20.50;44.80;;;;;;6120918;29;20031;-73
2023/04/28 00:20:59;;;;;;;6.43;1.30;;;20.50;44.80;;;;;;6119364;29;20144;-73
2023/04/28 00:24:00;;;;;;;1.13;1.02;;;20.50;44.90;;;;;;6120669;29;20472;-73
2023/04/28 00:27:02;;;;;;;1.25;1.02;;;20.50;44.90;;;;;;6118929;29;20103;-73
2023/04/28 00:30:03;;;;;;;2.13;1.13;;;20.50;44.90;;;;;;6119220;29;20159;-72
2023/04/28 00:33:04;;;;;;;2.10;1.30;;;20.50;44.90;;;;;;6120500;29;20437;-73
2023/04/28 00:36:06;;;;;;;2.67;1.10;;;20.50;44.90;;;;;;6118948;29;20030;-72
2023/04/28 00:39:07;;;;;;;3.08;1.30;;;20.50;44.90;;;;;;6120342;29;20326;-73
2023/04/28 00:42:08;;;;;;;5.13;1.20;;;20.60;44.90;;;;;;6103714;29;20035;-73
2023/04/28 00:45:09;;;;;;;5.85;1.50;;;20.80;44.90;;;;;;6120234;29;20353;-73
2023/04/28 00:48:11;;;;;;;3.38;1.10;;;20.60;44.90;;;;;;6118998;29;20024;-74
2023/04/28 00:51:13;;;;;;;4.03;1.83;;;20.70;45.00;;;;;;6120395;28;20031;-73
2023/04/28 00:54:15;;;;;;;4.65;1.80;;;20.70;45.00;;;;;;6119187;29;20027;-73
2023/04/28 00:57:15;;;;;;;4.20;1.50;;;20.70;45.10;;;;;;6118749;29;20381;-74
2023/04/28 01:00:16;;;;;;;1.70;1.38;;;20.70;45.00;;;;;;6118571;29;20039;-75
2023/04/28 01:03:17;;;;;;;3.30;2.03;;;20.70;45.00;;;;;;6119280;29;20122;-73
2023/04/28 01:06:19;;;;;;;2.85;2.10;;;20.70;45.20;;;;;;6120340;29;20023;-76
2023/04/28 01:09:21;;;;;;;2.88;1.83;;;20.70;45.40;;;;;;6118219;29;20042;-73
2023/04/28 01:12:24;;;;;;;2.83;1.90;;;20.70;45.40;;;;;;6118606;29;20031;-72
2023/04/28 01:15:29;;;;;;;3.08;1.83;;;20.70;45.40;;;;;;6118527;29;20052;-72
2023/04/28 01:18:31;;;;;;;4.50;1.65;;;20.70;45.50;;;;;;6102448;29;20039;-72
2023/04/28 01:21:33;;;;;;;5.95;1.88;;;20.60;45.50;;;;;;6119700;29;20090;-73
2023/04/28 01:24:42;;;;;;;7.07;2.08;;;20.60;45.60;;;;;;6107199;29;20036;-73
2023/04/28 01:27:44;;;;;;;2.10;1.40;;;20.50;45.80;;;;;;6121694;29;20134;-72
2023/04/28 01:30:45;;;;;;;6.93;2.03;;;20.50;46.00;;;;;;6121998;29;20036;-72
2023/04/28 01:33:46;;;;;;;2.50;1.75;;;20.40;46.00;;;;;;6136014;29;20028;-73
2023/04/28 01:36:47;;;;;;;6.75;1.90;;;20.40;46.10;;;;;;6147280;28;20039;-73
2023/04/28 01:39:49;;;;;;;6.25;1.50;;;20.30;46.20;;;;;;6146783;28;20028;-72
2023/04/28 01:42:50;;;;;;;5.15;1.92;;;20.30;46.90;;;;;;6145875;28;20376;-73
2023/04/28 01:45:51;;;;;;;4.47;1.63;;;20.30;46.40;;;;;;6145624;28;20026;-73
2023/04/28 01:48:52;;;;;;;4.30;1.85;;;20.20;46.50;;;;;;6144955;28;20035;-74
2023/04/28 01:51:54;;;;;;;3.30;1.80;;;20.20;46.60;;;;;;6137718;28;20028;-73
2023/04/28 01:54:55;;;;;;;2.97;1.65;;;20.20;46.70;;;;;;6121894;29;20480;-73
2023/04/28 01:57:57;;;;;;;7.50;1.90;;;20.20;46.70;;;;;;6121592;29;20066;-74
2023/04/28 02:00:58;;;;;;;1.83;1.42;;;20.10;46.70;;;;;;6123344;29;20023;-73
2023/04/28 02:03:59;;;;;;;3.78;1.55;;;20.10;46.80;;;;;;6105819;29;20047;-74
2023/04/28 02:07:00;;;;;;;11.38;5.15;;;20.10;46.80;;;;;;6121293;29;20068;-73
2023/04/28 02:10:01;;;;;;;4.88;2.20;;;20.10;46.80;;;;;;6121050;29;20445;-73
2023/04/28 02:13:02;;;;;;;4.35;1.50;;;20.10;46.70;;;;;;6121262;29;20028;-73
2023/04/28 02:16:04;;;;;;;2.15;1.35;;;20.00;46.60;;;;;;6121054;29;20028;-72
2023/04/28 02:19:05;;;;;;;2.50;1.25;;;20.00;46.50;;;;;;6120888;29;20527;-73
2023/04/28 02:22:06;;;;;;;5.10;1.90;;;20.00;46.60;;;;;;6120955;29;20523;-73
2023/04/28 02:25:07;;;;;;;4.50;1.20;;;20.00;46.60;;;;;;6121028;29;20050;-73
2023/04/28 02:28:11;;;;;;;2.03;1.02;;;19.90;46.70;;;;;;6105498;29;20072;-74
2023/04/28 02:31:12;;;;;;;2.67;1.10;;;19.80;46.70;;;;;;6120806;29;20492;-73
2023/04/28 02:34:13;;;;;;;2.95;1.52;;;19.80;46.80;;;;;;6120607;29;20034;-72
2023/04/28 02:37:14;;;;;;;3.10;1.25;;;19.80;46.80;;;;;;6105125;29;20128;-73
2023/04/28 02:40:15;;;;;;;3.72;1.40;;;19.80;46.80;;;;;;6120788;29;20464;-73
2023/04/28 02:43:16;;;;;;;5.03;1.60;;;19.80;47.00;;;;;;6120478;29;20626;-74
2023/04/28 02:46:17;;;;;;;1.50;1.23;;;19.80;47.00;;;;;;6121983;29;20031;-73
2023/04/28 02:49:18;;;;;;;2.10;1.25;;;19.70;47.40;;;;;;6104487;29;20043;-73
2023/04/28 02:52:19;;;;;;;5.07;1.70;;;19.70;47.40;;;;;;6120388;29;20126;-74
2023/04/28 02:55:23;;;;;;;4.07;1.40;;;19.70;47.60;;;;;;6120296;29;20142;-73
2023/04/28 02:58:25;;;;;;;10.48;2.08;;;19.70;47.90;;;;;;6119939;29;20055;-73
2023/04/28 03:01:26;;;;;;;2.25;1.70;;;19.60;48.10;;;;;;6120501;29;20131;-72
2023/04/28 03:04:27;;;;;;;4.15;1.52;;;19.40;48.30;;;;;;6120190;29;20054;-72
2023/04/28 03:07:28;;;;;;;6.50;1.50;;;19.50;48.70;;;;;;6120139;29;20118;-73
2023/04/28 03:10:29;;;;;;;2.85;1.65;;;19.40;49.00;;;;;;6119754;29;20055;-73
2023/04/28 03:13:30;;;;;;;5.65;1.85;;;19.30;48.90;;;;;;6120047;29;20026;-72
2023/04/28 03:16:32;;;;;;;6.10;1.70;;;19.30;49.20;;;;;;6121123;29;20046;-73
2023/04/28 03:19:33;;;;;;;2.60;1.52;;;19.20;49.30;;;;;;6119601;29;20050;-73
2023/04/28 03:22:34;;;;;;;2.72;1.48;;;19.20;49.30;;;;;;6119546;29;20040;-75
2023/04/28 03:25:36;;;;;;;2.35;1.33;;;19.10;49.20;;;;;;6130352;29;20173;-72
2023/04/28 03:28:37;;;;;;;3.10;1.67;;;19.10;49.30;;;;;;6127239;29;20035;-74
2023/04/28 03:31:38;;;;;;;2.72;1.67;;;19.00;49.40;;;;;;6143607;28;20098;-74
2023/04/28 03:34:39;;;;;;;9.95;1.73;;;19.00;49.60;;;;;;6113885;28;20054;-73
2023/04/28 03:37:39;;;;;;;3.42;1.58;;;19.00;49.80;;;;;;6096015;29;20111;-72
2023/04/28 03:40:41;;;;;;;4.30;1.48;;;19.00;49.90;;;;;;6097202;29;20076;-72
2023/04/28 03:44:02;;;;;;;2.08;1.20;;;19.00;50.00;;;;;;6117179;29;20045;-72
2023/04/28 03:47:06;;;;;;;4.50;1.70;;;18.90;50.00;;;;;;6101876;29;20023;-73
2023/04/28 03:50:07;;;;;;;2.63;1.67;;;18.90;50.10;;;;;;6109011;28;20032;-73
2023/04/28 03:53:09;;;;;;;2.92;1.50;;;18.90;50.10;;;;;;6125176;29;20114;-73
2023/04/28 03:56:09;;;;;;;6.65;1.40;;;18.90;50.10;;;;;;6125958;29;20530;-72
2023/04/28 03:59:11;;;;;;;2.15;1.38;;;18.80;50.10;;;;;;6125543;29;20046;-71
2023/04/28 04:02:13;;;;;;;4.68;1.33;;;18.90;50.20;;;;;;6125343;29;20046;-72
2023/04/28 04:05:14;;;;;;;2.63;1.50;;;18.80;50.20;;;;;;6126843;29;20038;-72
2023/04/28 04:08:15;;;;;;;1.70;1.27;;;18.80;50.40;;;;;;6125232;29;20141;-72
2023/04/28 04:11:16;;;;;;;5.13;1.40;;;18.70;50.50;;;;;;6127162;29;20098;-72
2023/04/28 04:14:17;;;;;;;6.20;1.42;;;18.70;50.60;;;;;;6142859;29;20114;-72
2023/04/28 04:17:18;;;;;;;3.78;1.42;;;18.70;50.70;;;;;;6142534;29;20443;-72
2023/04/28 04:20:19;;;;;;;1.83;1.20;;;18.70;50.80;;;;;;6104027;29;20039;-72
2023/04/28 04:23:21;;;;;;;5.57;1.30;;;18.70;50.80;;;;;;6124246;29;20063;-72
2023/04/28 04:26:22;;;;;;;2.72;1.48;;;18.70;50.80;;;;;;6106562;29;20177;-75
2023/04/28 04:29:24;;;;;;;2.92;1.40;;;18.70;50.80;;;;;;6122369;29;20134;-73
2023/04/28 04:32:26;;;;;;;6.20;1.30;;;18.70;50.80;;;;;;6116089;29;20027;-72
2023/04/28 04:35:27;;;;;;;1.80;1.35;;;18.80;50.90;;;;;;6096734;29;20028;-72
2023/04/28 04:38:29;;;;;;;3.92;1.50;;;18.80;50.90;;;;;;6096744;29;20032;-73
2023/04/28 04:41:31;;;;;;;2.22;1.40;;;18.80;50.80;;;;;;6096351;29;20083;-72
2023/04/28 04:44:48;;;;;;;5.25;1.27;;;18.80;51.00;;;;;;6109529;29;20042;-73
2023/04/28 04:48:00;;;;;;;6.95;1.40;;;18.70;51.00;;;;;;6120938;29;20491;-73
2023/04/28 04:51:01;;;;;;;2.70;1.30;;;18.70;51.10;;;;;;6119809;29;20028;-73
2023/04/28 04:54:02;;;;;;;2.25;1.40;;;18.70;51.30;;;;;;6120044;29;20091;-72
2023/04/28 04:57:04;;;;;;;2.75;1.60;;;18.70;51.50;;;;;;6118801;29;20355;-73
2023/04/28 05:00:28;;;;;;;2.88;1.63;;;18.70;51.50;;;;;;6119707;29;20462;-73
2023/04/28 05:03:29;;;;;;;3.50;1.88;;;18.80;51.60;;;;;;6118586;29;20082;-72
2023/04/28 05:06:30;;;;;;;1.58;1.40;;;18.80;51.70;;;;;;6102776;29;20030;-73
2023/04/28 05:09:32;;;;;;;9.18;1.73;;;18.90;51.90;;;;;;6117989;29;20043;-71
2023/04/28 05:12:33;;;;;;;1.83;1.50;;;18.80;51.80;;;;;;6102878;29;20709;-72
2023/04/28 05:15:35;;;;;;;4.50;1.58;;;18.90;51.90;;;;;;6102451;29;20035;-74
2023/04/28 05:18:56;;;;;;;3.92;1.85;;;18.90;51.80;;;;;;6121236;29;20035;-72
2023/04/28 05:21:57;;;;;;;9.75;1.80;;;18.90;51.70;;;;;;6118047;29;20052;-73
2023/04/28 05:24:58;;;;;;;5.20;1.90;;;19.00;51.70;;;;;;6117667;29;20068;-73
2023/04/28 05:28:03;;;;;;;10.95;1.90;;;19.00;51.60;;;;;;6117353;29;20438;-72
2023/04/28 05:31:04;;;;;;;7.35;2.63;;;19.10;51.60;;;;;;6117947;29;20087;-74
2023/04/28 05:34:06;;;;;;;7.07;1.80;;;19.20;51.60;;;;;;6109502;29;20020;-72
2023/04/28 05:37:07;;;;;;;2.45;1.50;;;19.20;51.50;;;;;;6096154;29;20034;-73
2023/04/28 05:40:10;;;;;;;5.55;1.70;;;19.30;51.40;;;;;;6100572;29;20075;-74
2023/04/28 05:43:11;;;;;;;2.65;1.67;;;19.30;51.30;;;;;;6117833;29;20046;-74
2023/04/28 05:46:12;;;;;;;6.68;2.03;;;19.40;51.20;;;;;;6117677;29;20336;-72
2023/04/28 05:49:13;;;;;;;6.72;2.03;;;19.40;51.10;;;;;;6117746;29;20083;-74
2023/04/28 05:52:14;;;;;;;8.90;2.10;;;19.40;51.00;;;;;;6102244;29;20053;-74
2023/04/28 05:55:15;;;;;;;11.65;2.00;;;19.50;51.00;;;;;;6102093;29;20031;-75
2023/04/28 05:58:17;;;;;;;3.15;1.85;;;19.50;51.00;;;;;;6117835;29;20401;-74
2023/04/28 06:01:18;;;;;;;5.90;1.60;;;19.50;51.00;;;;;;6114627;29;20047;-73
2023/04/28 06:04:20;;;;;;;5.28;2.00;;;19.50;50.90;;;;;;6118130;29;20078;-74
2023/04/28 06:07:23;;;;;;;4.43;2.10;;;19.50;50.80;;;;;;6119003;29;20099;-74
2023/04/28 06:10:25;;;;;;;2.67;1.60;;;19.50;50.80;;;;;;6122734;29;20517;-74
2023/04/28 06:13:26;;;;;;;9.27;2.45;;;19.50;50.80;;;;;;6105949;29;20182;-74
2023/04/28 06:16:28;;;;;;;21.20;2.47;;;19.50;50.80;;;;;;6121558;29;20437;-74
2023/04/28 06:19:29;;;;;;;19.67;2.58;;;19.50;51.00;;;;;;6121528;29;20047;-73
2023/04/28 06:22:30;;;;;;;16.00;2.85;;;19.50;51.20;;;;;;6121841;29;20046;-72
2023/04/28 06:25:31;;;;;;;21.95;2.30;;;19.50;51.40;;;;;;6122348;29;20035;-72
2023/04/28 06:28:32;;;;;;;7.15;1.90;;;19.40;51.40;;;;;;6122382;29;20118;-73
2023/04/28 06:31:33;;;;;;;3.38;2.00;;;19.50;51.50;;;;;;6122339;29;20039;-74
2023/04/28 06:34:34;;;;;;;3.22;1.67;;;19.50;51.50;;;;;;6114322;29;20145;-73
2023/04/28 06:37:35;;;;;;;12.90;2.25;;;19.50;51.50;;;;;;6112456;29;20123;-73
2023/04/28 06:40:36;;;;;;;6.15;2.30;;;19.50;51.50;;;;;;6124238;29;20042;-73
2023/04/28 06:43:39;;;;;;;6.72;2.72;;;19.50;51.50;;;;;;6122171;29;20091;-75
2023/04/28 06:46:44;;;;;;;14.25;2.10;;;19.50;51.50;;;;;;6123057;29;20038;-73
2023/04/28 06:49:46;;;;;;;5.28;2.20;;;19.50;51.60;;;;;;6122767;29;20481;-74
2023/04/28 06:52:47;;;;;;;15.55;2.20;;;19.50;51.50;;;;;;6123014;29;20016;-74
2023/04/28 06:55:48;;;;;;;3.78;2.17;;;19.60;51.50;;;;;;6121926;29;20103;-73
2023/04/28 06:58:49;;;;;;;9.63;2.50;;;19.70;51.40;;;;;;6121780;29;20027;-74
2023/04/28 07:01:50;;;;;;;4.97;2.15;;;19.70;51.30;;;;;;6120548;29;20027;-73
2023/04/28 07:04:51;;;;;;;3.13;2.05;;;19.80;51.20;;;;;;6122028;29;20096;-73
2023/04/28 07:07:52;;;;;;;7.90;2.17;;;19.80;51.20;;;;;;6120346;29;20040;-73
2023/04/28 07:10:53;;;;;;;3.50;1.73;;;19.90;51.10;;;;;;6122219;29;20560;-73
2023/04/28 07:13:54;;;;;;;12.63;2.00;;;20.00;51.00;;;;;;6120462;29;20028;-72
2023/04/28 07:16:55;;;;;;;5.07;1.83;;;20.20;50.80;;;;;;6120312;29;20117;-73
2023/04/28 07:19:56;;;;;;;4.60;2.05;;;20.40;50.40;;;;;;6120265;29;20403;-73
2023/04/28 07:22:57;;;;;;;5.75;2.33;;;20.70;49.90;;;;;;6120117;29;20035;-74
2023/04/28 07:25:59;;;;;;;4.20;1.85;;;20.80;49.40;;;;;;6120549;29;20381;-74
2023/04/28 07:29:00;;;;;;;7.05;1.88;;;20.90;48.90;;;;;;6120186;29;20404;-73
2023/04/28 07:32:07;;;;;;;8.63;2.30;;;20.90;48.80;;;;;;6119982;29;20437;-74
2023/04/28 07:35:07;;;;;;;5.38;2.00;;;20.90;48.60;;;;;;6120606;29;20027;-73
2023/04/28 07:38:08;;;;;;;7.88;2.25;;;20.90;48.60;;;;;;6120241;29;20371;-73
2023/04/28 07:41:09;;;;;;;5.15;2.03;;;20.90;48.50;;;;;;6120901;29;20141;-73
2023/04/28 07:44:10;;;;;;;4.63;2.10;;;21.00;48.30;;;;;;6120027;29;20032;-73
2023/04/28 07:47:12;;;;;;;5.78;1.90;;;21.10;48.10;;;;;;6121568;29;20382;-72
2023/04/28 07:50:13;;;;;;;8.38;2.05;;;21.30;47.70;;;;;;6121124;29;20330;-73
2023/04/28 07:53:14;;;;;;;5.32;2.40;;;21.50;47.30;;;;;;6119593;29;20020;-73
2023/04/28 07:56:15;;;;;;;7.68;2.35;;;21.70;47.00;;;;;;6119557;29;20480;-75
2023/04/28 07:59:16;;;;;;;13.23;2.15;;;21.80;46.70;;;;;;6119151;29;20114;-75
2023/04/28 08:02:19;;;;;;;5.68;2.03;;;21.90;46.30;;;;;;6120538;29;20491;-75
2023/04/28 08:05:20;;;;;;;4.88;2.00;;;21.90;46.20;;;;;;6120266;29;20038;-73
2023/04/28 08:08:21;;;;;;;5.93;1.33;;;21.90;46.20;;;;;;6118529;29;20453;-73
2023/04/28 08:11:22;;;;;;;22.10;2.15;;;21.80;46.20;;;;;;6103189;29;20051;-74
2023/04/28 08:14:23;;;;;;;3.88;2.00;;;21.80;46.10;;;;;;6120636;29;20552;-73
2023/04/28 08:17:24;;;;;;;5.63;1.67;;;21.90;46.00;;;;;;6118816;29;20024;-73
2023/04/28 08:20:25;;;;;;;10.13;1.70;;;21.90;45.90;;;;;;6119416;29;20043;-73
2023/04/28 08:23:29;;;;;;;9.27;1.83;;;22.00;45.90;;;;;;6120404;29;20046;-74
2023/04/28 08:26:31;;;;;;;3.25;2.08;;;22.10;45.60;;;;;;6119247;29;20032;-73
2023/04/28 08:29:32;;;;;;;3.88;1.80;;;22.20;45.50;;;;;;6119572;29;20106;-75
2023/04/28 08:32:33;;;;;;;12.85;2.00;;;22.20;45.40;;;;;;6118822;29;20042;-73
2023/04/28 08:35:34;;;;;;;6.78;1.88;;;22.30;45.30;;;;;;6119053;29;20108;-73
2023/04/28 08:38:35;;;;;;;6.20;1.60;;;22.50;45.00;;;;;;6120082;28;20031;-72
2023/04/28 08:41:38;;;;;;;13.50;1.80;;;22.60;44.60;;;;;;6118449;29;20032;-73
2023/04/28 08:44:39;;;;;;;3.28;1.58;;;22.80;44.30;;;;;;6102697;29;20043;-74
2023/04/28 08:47:44;;;;;;;2.80;1.40;;;23.00;44.00;;;;;;6120138;29;20693;-73
2023/04/28 08:50:53;;;;;;;5.68;1.30;;;23.20;43.60;;;;;;6119641;29;20125;-74
2023/04/28 08:53:58;;;;;;;3.05;1.42;;;23.30;43.20;;;;;;6120221;29;20410;-73
2023/04/28 08:57:00;;;;;;;4.78;1.20;;;23.40;43.10;;;;;;6118146;29;20111;-75
2023/04/28 09:00:01;;;;;;;3.75;1.67;;;23.60;42.90;;;;;;6118209;29;20114;-72
2023/04/28 09:03:02;;;;;;;7.18;1.83;;;23.70;42.50;;;;;;6118282;29;20027;-73
2023/04/28 09:06:03;;;;;;;5.75;1.42;;;23.80;42.30;;;;;;6121246;29;20182;-75
2023/04/28 09:09:29;;;;;;;7.78;1.45;;;24.00;42.10;;;;;;6119845;29;20123;-74
2023/04/28 09:12:37;;;;;;;4.47;1.40;;;24.10;41.80;;;;;;6120136;29;20101;-72
2023/04/28 09:15:40;;;;;;;4.63;1.50;;;24.40;41.40;;;;;;6120261;29;20024;-74
2023/04/28 09:18:55;;;;;;;13.23;1.45;;;24.40;40.90;;;;;;6120575;29;20034;-73
2023/04/28 09:21:57;;;;;;;6.85;1.45;;;24.40;41.00;;;;;;6119138;29;20043;-73
2023/04/28 09:25:10;;;;;;;3.97;1.90;;;24.40;40.90;;;;;;6119433;29;20429;-74
2023/04/28 09:28:21;;;;;;;4.35;1.77;;;24.50;40.80;;;;;;6102012;29;20086;-73
2023/04/28 09:31:27;;;;;;;9.48;1.55;;;24.60;40.70;;;;;;6102015;29;20068;-74
2023/04/28 09:34:45;;;;;;;8.90;1.60;;;24.70;40.60;;;;;;6118897;29;20413;-73
2023/04/28 09:37:46;;;;;;;9.18;1.33;;;24.90;40.40;;;;;;6101759;29;20477;-74
2023/04/28 09:40:57;;;;;;;9.45;1.08;;;25.20;39.90;;;;;;6101855;29;20053;-73
2023/04/28 09:44:09;;;;;;;2.55;1.13;;;25.40;39.40;;;;;;6120704;29;20032;-74
2023/04/28 09:47:21;;;;;;;8.93;1.23;;;25.50;39.30;;;;;;6124644;29;20137;-74
2023/04/28 09:50:21;;;;;;;3.47;1.70;;;25.50;39.20;;;;;;6124281;29;20076;-73
2023/04/28 09:53:24;;;;;;;9.40;1.30;;;25.70;38.90;;;;;;6122704;29;20034;-76
2023/04/28 09:56:28;;;;;;;4.05;1.35;;;26.00;38.70;;;;;;6124166;29;20027;-73
2023/04/28 09:59:29;;;;;;;5.50;1.73;;;26.10;38.50;;;;;;6122242;29;20034;-74
2023/04/28 10:02:32;;;;;;;7.18;1.35;;;26.10;38.30;;;;;;6122418;29;20094;-73
2023/04/28 10:05:34;;;;;;;4.43;1.20;;;26.10;38.40;;;;;;6124499;29;20098;-75
2023/04/28 10:08:39;;;;;;;7.22;1.65;;;26.00;38.50;;;;;;6105985;29;20043;-74
2023/04/28 10:11:40;;;;;;;3.45;1.42;;;26.00;38.50;;;;;;6122387;29;20077;-76
2023/04/28 10:14:41;;;;;;;8.57;1.80;;;26.00;38.40;;;;;;6121781;29;20053;-74
2023/04/28 10:17:42;;;;;;;3.55;1.30;;;26.00;38.40;;;;;;6122728;29;20098;-74
2023/04/28 10:20:52;;;;;;;4.53;1.60;;;26.00;38.40;;;;;;6122069;29;20023;-74
2023/04/28 10:24:14;;;;;;;3.75;1.45;;;26.00;38.30;;;;;;6123411;29;20108;-76
2023/04/28 10:27:16;;;;;;;4.38;1.40;;;26.00;38.20;;;;;;6123603;29;20074;-75
2023/04/28 10:30:20;;;;;;;6.35;1.25;;;26.10;38.20;;;;;;6121604;29;20036;-74
2023/04/28 10:33:25;;;;;;;5.38;1.60;;;26.20;38.10;;;;;;6123355;29;20496;-72
2023/04/28 10:36:51;;;;;;;4.15;1.50;;;26.40;37.70;;;;;;6123218;29;20030;-74
2023/04/28 10:40:30;;;;;;;7.18;1.33;;;26.50;37.60;;;;;;6121761;29;20074;-74
2023/04/28 10:43:33;;;;;;;4.38;1.63;;;26.50;37.40;;;;;;6121775;29;20132;-73
2023/04/28 10:47:03;;;;;;;3.30;1.20;;;26.50;37.40;;;;;;6121603;29;20803;-74
2023/04/28 10:50:08;;;;;;;4.30;1.42;;;26.40;37.60;;;;;;6122861;29;20712;-74
2023/04/28 10:53:09;;;;;;;3.78;1.48;;;26.50;37.60;;;;;;6121266;29;20039;-72
2023/04/28 10:56:24;;;;;;;1.92;1.20;;;26.80;37.50;;;;;;6134327;29;20039;-73
2023/04/28 10:59:27;;;;;;;4.05;1.55;;;27.10;37.20;;;;;;6145103;29;20043;-74
2023/04/28 11:02:39;;;;;;;5.22;1.50;;;27.30;36.80;;;;;;6143805;28;20027;-73
2023/04/28 11:06:22;;;;;;;3.15;1.52;;;27.70;36.30;;;;;;6128386;29;20038;-73
2023/04/28 11:09:32;;;;;;;8.18;1.30;;;28.00;35.60;;;;;;6145023;29;20046;-75
2023/04/28 11:12:33;;;;;;;5.55;1.50;;;28.30;35.40;;;;;;6144929;28;20037;-74
2023/04/28 11:15:34;;;;;;;10.80;1.40;;;28.60;35.10;;;;;;6146072;28;20020;-75
2023/04/28 11:18:49;;;;;;;1.70;1.15;;;28.80;34.90;;;;;;6132981;29;20078;-74
2023/04/28 11:21:53;;;;;;;7.38;1.67;;;29.10;34.70;;;;;;6122245;29;20039;-74
2023/04/28 11:24:56;;;;;;;12.77;2.30;;;29.10;34.40;;;;;;6121056;29;20031;-75
2023/04/28 11:28:04;;;;;;;3.70;1.60;;;29.30;34.00;;;;;;6120719;29;20102;-74
2023/04/28 11:31:22;;;;;;;3.38;1.35;;;29.50;33.90;;;;;;6122051;29;20083;-74
2023/04/28 11:34:24;;;;;;;3.55;1.15;;;29.60;34.20;;;;;;6121607;29;20024;-74
2023/04/28 11:37:26;;;;;;;11.75;1.92;;;29.60;33.30;;;;;;6104911;29;20759;-74
2023/04/28 11:40:27;;;;;;;7.18;1.42;;;29.70;33.30;;;;;;6120004;29;20020;-75
2023/04/28 11:43:31;;;;;;;5.20;1.50;;;29.80;33.20;;;;;;6104536;29;20055;-74
2023/04/28 11:46:32;;;;;;;8.32;1.75;;;30.00;33.20;;;;;;6104132;29;20047;-74
2023/04/28 11:49:44;;;;;;;3.70;1.50;;;30.20;32.90;;;;;;6121453;29;20114;-76
2023/04/28 11:52:49;;;;;;;3.20;1.50;;;30.40;32.60;;;;;;6121362;29;20032;-74
2023/04/28 11:56:06;;;;;;;3.20;1.40;;;30.50;32.20;;;;;;6119410;29;20103;-74
2023/04/28 11:59:09;;;;;;;3.55;1.60;;;30.70;32.10;;;;;;6118817;29;20031;-74
2023/04/28 12:02:10;;;;;;;4.60;1.50;;;31.10;31.50;;;;;;6121426;29;20042;-73
2023/04/28 12:05:11;;;;;;;4.82;1.13;;;31.50;30.90;;;;;;6121178;29;20040;-75
2023/04/28 12:08:13;;;;;;;3.60;1.00;;;31.60;30.70;;;;;;6121488;29;20032;-73
2023/04/28 12:11:14;;;;;;;3.33;1.20;;;31.60;30.60;;;;;;6120763;29;20102;-74
2023/04/28 12:14:15;;;;;;;4.63;1.20;;;31.60;30.70;;;;;;6120269;29;20027;-74
2023/04/28 12:17:26;;;;;;;9.65;1.30;;;31.40;30.80;;;;;;6120013;29;20031;-73
2023/04/28 12:20:37;;;;;;;2.53;1.48;;;31.40;31.00;;;;;;6120074;29;20425;-74
2023/04/28 12:23:41;;;;;;;15.18;1.13;;;31.50;30.90;;;;;;6121627;29;20034;-74
2023/04/28 12:26:43;;;;;;;3.55;1.25;;;31.80;30.70;;;;;;6119754;29;20019;-73
2023/04/28 12:29:45;;;;;;;2.65;1.38;;;31.80;31.00;;;;;;6118581;29;20820;-74
2023/04/28 12:32:46;;;;;;;3.30;1.35;;;31.90;30.20;;;;;;6120539;29;20031;-73
2023/04/28 12:35:48;;;;;;;4.30;1.17;;;31.90;30.10;;;;;;6120275;29;20027;-74
2023/04/28 12:38:49;;;;;;;4.65;1.60;;;31.80;30.30;;;;;;6118745;29;20106;-74
2023/04/28 12:41:50;;;;;;;9.00;1.50;;;31.80;30.20;;;;;;6120283;29;20027;-74
2023/04/28 12:44:51;;;;;;;2.38;1.48;;;31.80;30.30;;;;;;6119779;29;20019;-74
2023/04/28 12:47:52;;;;;;;3.95;1.30;;;31.90;30.20;;;;;;6125526;29;20174;-74
2023/04/28 12:50:53;;;;;;;6.55;1.40;;;32.10;30.00;;;;;;6142383;28;20109;-74
2023/04/28 12:53:54;;;;;;;2.25;1.10;;;32.20;29.80;;;;;;6119211;29;20054;-75
2023/04/28 12:56:55;;;;;;;1.52;0.98;;;32.20;29.60;;;;;;6119987;29;20430;-74
2023/04/28 12:59:56;;;;;;;2.42;1.30;;;32.10;29.60;;;;;;6118386;29;20039;-76
2023/04/28 13:02:57;;;;;;;8.60;1.55;;;32.10;29.70;;;;;;6118670;29;20055;-74
2023/04/28 13:05:58;;;;;;;10.93;1.38;;;32.40;29.60;;;;;;6119986;29;20074;-75
2023/04/28 13:08:59;;;;;;;2.58;1.30;;;32.80;29.40;;;;;;6102961;29;20028;-73
2023/04/28 13:12:02;;;;;;;7.72;1.30;;;33.30;29.00;;;;;;6119829;29;20028;-74
2023/04/28 13:15:03;;;;;;;3.53;1.50;;;34.00;28.40;;;;;;6119934;29;20379;-75
2023/04/28 13:18:04;;;;;;;5.50;1.20;;;34.70;27.70;;;;;;6118454;29;20038;-73
2023/04/28 13:21:05;;;;;;;2.78;1.30;;;35.20;27.20;;;;;;6123459;29;20035;-75
2023/04/28 13:24:07;;;;;;;3.45;1.42;;;35.50;26.60;;;;;;6107009;29;20119;-75
2023/04/28 13:27:08;;;;;;;7.25;1.55;;;35.30;26.70;;;;;;6124333;29;20035;-74
2023/04/28 13:30:10;;;;;;;4.10;1.20;;;34.60;27.10;;;;;;6124556;29;20058;-74
2023/04/28 13:33:11;;;;;;;9.40;1.70;;;34.00;27.60;;;;;;6124033;29;20099;-75
2023/04/28 13:36:12;;;;;;;4.68;1.20;;;33.70;27.90;;;;;;6107664;29;20110;-75
2023/04/28 13:39:13;;;;;;;3.10;1.30;;;33.60;28.20;;;;;;6124455;29;20027;-74
2023/04/28 13:42:15;;;;;;;3.17;1.10;;;33.90;27.80;;;;;;6123012;29;20492;-73
2023/04/28 13:45:15;;;;;;;2.72;1.25;;;34.00;27.70;;;;;;6138824;29;20041;-75
2023/04/28 13:48:17;;;;;;;5.03;1.05;;;33.80;28.00;;;;;;6148176;29;20349;-74
2023/04/28 13:51:18;;;;;;;2.47;1.30;;;34.20;27.70;;;;;;6145867;28;20016;-74
2023/04/28 13:54:20;;;;;;;4.65;1.40;;;34.90;27.10;;;;;;6124594;29;20483;-74
2023/04/28 13:57:20;;;;;;;5.60;1.08;;;35.40;26.40;;;;;;6124374;29;20049;-75
2023/04/28 14:00:23;;;;;;;5.72;1.70;;;35.50;26.30;;;;;;6124128;29;20036;-74
2023/04/28 14:03:25;;;;;;;4.13;1.17;;;35.60;26.20;;;;;;6123910;29;20027;-73
2023/04/28 14:06:26;;;;;;;4.40;1.60;;;35.50;26.30;;;;;;6123789;29;20028;-73
2023/04/28 14:09:27;;;;;;;10.15;1.30;;;35.10;26.60;;;;;;6122642;29;20024;-75
2023/04/28 14:12:28;;;;;;;3.90;1.30;;;34.60;26.90;;;;;;6123196;29;20032;-74
2023/04/28 14:15:29;;;;;;;6.50;1.10;;;34.30;27.30;;;;;;6107303;29;20035;-74
2023/04/28 14:18:32;;;;;;;3.20;1.40;;;34.00;27.50;;;;;;6122757;29;20042;-74
2023/04/28 14:21:34;;;;;;;1.58;1.08;;;34.20;27.30;;;;;;6123502;29;20047;-74
2023/04/28 14:24:35;;;;;;;3.88;1.33;;;34.20;27.30;;;;;;6123933;29;20522;-74
2023/04/28 14:27:36;;;;;;;2.03;1.08;;;33.90;27.50;;;;;;6122261;29;20027;-74
2023/04/28 14:30:37;;;;;;;3.90;1.20;;;33.30;27.90;;;;;;6123964;29;20318;-75
2023/04/28 14:33:39;;;;;;;12.88;1.50;;;32.90;28.50;;;;;;6122179;29;20024;-73
2023/04/28 14:36:41;;;;;;;6.75;1.35;;;32.40;28.90;;;;;;6106267;29;20059;-74
2023/04/28 14:39:42;;;;;;;3.53;1.27;;;32.10;29.40;;;;;;6123383;29;20098;-75
2023/04/28 14:42:44;;;;;;;7.65;1.15;;;31.90;29.80;;;;;;6146058;28;20153;-74
2023/04/28 14:45:45;;;;;;;4.00;1.33;;;31.50;30.00;;;;;;6145584;28;20023;-73
2023/04/28 14:48:46;;;;;;;5.20;1.35;;;31.10;30.40;;;;;;6146531;28;20511;-74
2023/04/28 14:51:48;;;;;;;2.33;1.60;;;30.80;31.00;;;;;;6146927;28;20072;-73
2023/04/28 14:54:49;;;;;;;8.77;1.48;;;30.50;31.60;;;;;;6134824;28;20122;-73
2023/04/28 14:57:50;;;;;;;2.25;1.10;;;30.10;32.00;;;;;;6122922;29;20188;-74
2023/04/28 15:00:52;;;;;;;5.75;1.08;;;30.00;32.30;;;;;;6122916;29;20385;-73
2023/04/28 15:03:52;;;;;;;4.55;1.50;;;30.00;32.50;;;;;;6121536;29;20148;-75
2023/04/28 15:06:54;;;;;;;6.95;1.40;;;29.90;32.50;;;;;;6123142;29;20086;-74
2023/04/28 15:09:59;;;;;;;2.28;1.17;;;29.90;32.80;;;;;;6122847;28;20133;-74
2023/04/28 15:13:00;;;;;;;2.38;1.20;;;29.70;33.70;;;;;;6121468;29;20086;-74
2023/04/28 15:16:01;;;;;;;3.83;1.52;;;29.60;33.40;;;;;;6105585;29;20023;-74
2023/04/28 15:19:02;;;;;;;14.00;1.40;;;29.30;33.70;;;;;;6121104;29;20686;-73
2023/04/28 15:22:03;;;;;;;3.70;1.27;;;29.10;34.10;;;;;;6120647;29;20056;-75
2023/04/28 15:25:05;;;;;;;2.72;1.30;;;28.90;34.50;;;;;;6122343;29;20143;-70
2023/04/28 15:28:06;;;;;;;8.40;1.17;;;28.80;34.90;;;;;;6120298;29;20123;-72
2023/04/28 15:31:07;;;;;;;3.25;1.30;;;28.60;35.10;;;;;;6121557;29;20194;-74
2023/04/28 15:34:08;;;;;;;6.57;1.67;;;28.60;35.50;;;;;;6112813;29;20020;-75
2023/04/28 15:37:41;;;;;;;3.47;1.23;;;28.50;35.60;;;;;;6108316;29;20079;-75
2023/04/28 15:40:43;;;;;;;5.10;1.70;;;28.40;35.80;;;;;;6120497;29;20034;-74
2023/04/28 15:43:44;;;;;;;3.92;1.48;;;28.30;35.90;;;;;;6119744;29;20063;-74
2023/04/28 15:46:46;;;;;;;4.32;1.65;;;28.40;36.00;;;;;;6120275;29;20035;-74
2023/04/28 15:49:46;;;;;;;8.40;1.77;;;28.40;35.90;;;;;;6121351;29;20039;-73
2023/04/28 15:52:48;;;;;;;2.42;1.35;;;28.40;35.90;;;;;;6119851;29;20028;-73